Sonic Adventure (DX): Boss Rankings

Records: Times | Rings | Scores | Races | Bosses | Freestyle
Leaders: Times | Rings | Scores | Races | Bosses | Freestyle | Overall
Rank Player Percent Points Date
1 Sonicspeedruner 97.9% 46 06-15-18
2 Gamepro011 96.3% 81 06-15-18
3 chainchumper 94.2% 126 06-15-18
4 DarkPolarNight 93.8% 135 06-15-18
5 Austinf 91.6% 185 06-15-18
6 Jawzun 88.8% 247 06-15-18
7 drminus 88.2% 260 06-15-18
8 ethmar 86.6% 294 06-15-18
9 Parax 86.2% 304 06-15-18
10 ike6252 85.4% 321 06-15-18
11 Coolfansonic 83.8% 357 06-15-18
12 Dashjump 83.5% 364 06-15-18
13 Avento128bits 83.3% 369 06-15-18
14 DarkspinesSonic 79.6% 449 06-15-18
15 TheRealShadnic 77.9% 488 06-15-18
16 THC98 77.3% 501 06-15-18
17 F-Man 75.6% 538 06-15-18
18 Marth 74.4% 564 06-15-18
19 Mariobutch 73.1% 593 06-15-18
20 yoshifan 72.6% 604 06-15-18
21 InferSaime 71.8% 623 06-15-18
22 PfoSonic 71.1% 637 06-15-18
23 HyperSonic7701 69.3% 677 06-15-18
24 RPGnutter 68.2% 701 06-15-18
25 Paragod 67.0% 729 06-15-18
26 mike89 66.6% 738 06-15-18
27 frankoredstrato 66.2% 746 06-15-18
28 Groudon199 62.2% 834 06-15-18
29 sonicam 62.1% 837 06-15-18
30 SadisticMystic 61.9% 842 06-15-18
31 Dekuboy 61.1% 858 06-15-18
32 Stefan 60.5% 872 06-15-18
33 Diamond 59.2% 901 06-15-18
34 Combo 57.1% 946 06-15-18
35 bertin 56.6% 959 06-15-18
36 SkyLights 54.0% 1016 06-15-18
37 Arch 48.7% 1132 06-15-18
38 Fr3nZy 48.1% 1146 06-15-18
39 francisco 48.0% 1148 06-15-18
40 OmegaDJ 46.6% 1180 06-15-18
41 Andrea Ritsu 46.4% 1184 06-15-18
42 Omega Rafael Santos 45.1% 1212 06-15-18
43 P1 Pause 43.8% 1242 06-15-18
44 magnum12 41.4% 1295 06-15-18
45 VeritasDL 41.0% 1302 06-15-18
46 Auriman1 37.6% 1377 06-15-18
47 James_Bertolli 35.7% 1420 06-15-18
48 chaos shadow 35.4% 1426 06-15-18
49 Hunters13 34.4% 1449 06-15-18
50 Psymar 34.0% 1458 06-15-18
51 teamblackarms 33.8% 1462 06-15-18
52 FuzZerd 33.4% 1471 06-15-18
53 Drakodan 32.6% 1489 06-15-18
54 Quartz 31.9% 1505 06-15-18
55 Cyan Ryan 31.8% 1507 06-15-18
56 eggFL 31.4% 1516 06-15-18
57 Jerzia 30.7% 1530 06-15-18
58 BigAL49 30.7% 1531 06-15-18
58 GerbilSoft 30.7% 1531 06-15-18
60 elecmouse101 30.0% 1547 06-15-18
61 Webber3000 29.7% 1553 06-15-18
62 Thorn 29.6% 1554 06-15-18
63 Nim 29.3% 1561 06-15-18
63 videogamemaster777 29.3% 1561 06-15-18
65 Mo Player Banned 28.1% 1588 06-15-18
66 Turbos 27.9% 1592 06-15-18
67 Termon 26.6% 1620 06-15-18
68 Dave Cramer 26.0% 1635 06-15-18
69 Flying Fox 25.5% 1646 06-15-18
70 nuckrieg 25.0% 1657 06-15-18
71 buddychaos0415 24.6% 1665 06-15-18
72 Shadow Jacky 23.5% 1689 06-15-18
73 Cream147 21.2% 1740 06-15-18
74 N 21.0% 1744 06-15-18
74 supersonicfan 21.0% 1744 06-15-18
76 MiStEr_ShAoLiN 20.7% 1752 06-15-18
77 NintenDan 20.5% 1756 06-15-18
78 thewaytodawnnn 20.4% 1758 06-15-18
79 Aitamen 20.2% 1762 06-15-18
80 itsPersonnal 20.0% 1766 06-15-18
81 The T 20.0% 1768 06-15-18
82 Cybrax 19.8% 1772 06-15-18
82 supersonic465 19.8% 1772 06-15-18
84 SonicWinDX 19.4% 1781 06-15-18
85 Cruizer 18.5% 1800 06-15-18
86 VMU Player Banned 17.3% 1826 06-15-18
87 Game_Complete 16.9% 1835 06-15-18
88 The Great Lord Mick 16.6% 1842 06-15-18
89 Niczur 16.1% 1853 06-15-18
90 GreatStar 15.6% 1865 06-15-18
90 Questionguy555 15.6% 1865 06-15-18
92 Spinballwizard 15.1% 1875 06-15-18
93 Sondow 14.3% 1893 06-15-18
94 Destroyer121121 14.1% 1898 06-15-18
95 sonicandamy Player Banned 14.0% 1900 06-15-18
96 GarnetPrincess 13.2% 1918 06-15-18
97 SonicAD 11.9% 1945 06-15-18
98 Don 11.1% 1963 06-15-18
99 Miles9999 10.9% 1968 06-15-18
100 SuperBlitzCraig 10.9% 1969 06-15-18
101 Siavash Tazari 10.7% 1973 06-15-18
102 Cutiefox 10.0% 1988 06-15-18
102 Psyknux 10.0% 1988 06-15-18
104 knuckles_sonic8 9.5% 1998 06-15-18
104 Werey 9.5% 1998 06-15-18
106 joecoolgames 9.4% 2002 06-15-18
107 mauserman 9.0% 2009 06-15-18
108 Badlex727 8.9% 2013 06-15-18
109 EngiNerd 8.8% 2015 06-15-18
110 Sonic Singularity 8.7% 2016 06-15-18
111 dShadow 8.4% 2024 06-15-18
112 Hipertails12 8.2% 2028 06-15-18
113 Shanekilz 8.0% 2033 06-15-18
114 Aiko 7.9% 2034 06-15-18
115 Therio 7.5% 2044 06-15-18
116 Mastakirby 7.3% 2047 06-15-18
117 ArthurVGCP 7.2% 2050 06-15-18
118 Calfd 6.8% 2058 06-15-18
118 TommyeAsY 6.8% 2058 06-15-18
120 FocusSight64 6.7% 2060 06-15-18
121 sonic29887 6.6% 2062 06-15-18
122 TheChaosEmeraIds 6.6% 2063 06-15-18
123 Chao_Fan 6.4% 2068 06-15-18
124 djmat 6.0% 2076 06-15-18
125 HHNNBBHHN 5.8% 2081 06-15-18
125 tal39h 5.8% 2081 06-15-18
127 paulie9990 5.7% 2083 06-15-18
128 R3FR4G 5.5% 2087 06-15-18
128 Sogeking 5.5% 2087 06-15-18
130 ModifiedMonkee 5.3% 2092 06-15-18
131 Brian_pso 4.9% 2101 06-15-18
132 Chawkk 4.8% 2102 06-15-18
133 MK 4.5% 2109 06-15-18
133 SpinDashMaster 4.5% 2109 06-15-18
135 SilvertheAlmighty 4.4% 2111 06-15-18
136 Crispian 4.2% 2116 06-15-18
137 MastaToken 4.1% 2119 06-15-18
138 SpiritDragon1995 3.8% 2124 06-15-18
139 Sonique Hedgehog 3.8% 2126 06-15-18
140 KinkyCadence 3.4% 2133 06-15-18
140 PsyBorg 3.4% 2133 06-15-18
142 Mad Andy 3.3% 2135 06-15-18
143 FSSRandomvids 3.3% 2137 06-15-18
144 JamminX42 2.9% 2145 06-15-18
144 koinu93 2.9% 2145 06-15-18
146 Rolken 2.8% 2147 06-15-18
147 Xia 2.8% 2148 06-15-18
148 andres430 2.5% 2154 06-15-18
149 shadowblast63 Player Banned 2.2% 2160 06-15-18
150 dabestgamer 2.1% 2162 06-15-18
151 crazy1993 2.1% 2163 06-15-18
152 Illidan 1.9% 2166 06-15-18
153 Richied 1.9% 2168 06-15-18
154 gamer1245 1.8% 2170 06-15-18
155 DanielTheFalcon 1.7% 2172 06-15-18
156 Iwannabelink 1.6% 2173 06-15-18
157 oTaiIilLsS 1.4% 2179 06-15-18
157 soniccoloursunleashed 1.4% 2179 06-15-18
159 niscool 1.3% 2180 06-15-18
160 ieatatsonic 1.0% 2186 06-15-18
160 Redd 1.0% 2186 06-15-18
162 Lil_Dude 0.8% 2192 06-15-18
162 LinksDarkArrows 0.8% 2192 06-15-18
164 Cbwade15 0.4% 2199 06-15-18
165 neaolas 0.4% 2201 06-15-18
166 BlankTH 0.2% 2205 06-15-18
167 Heroes_Hater 0.1% 2206 06-15-18
168 S-MS32X-S 0.0% 2208 06-15-18
169 KaM Mark MaK 0.0% 2210 06-15-18
169 MegabombBlade 0.0% 2210 06-15-18

This page is using the New Data Table System. [FUTURE]

Game ID: 3 | Category ID: 6
Hits: 4,866 | Hits This Month: 6 | DB Calls: 24 | Mem Usage: 5.36 MB | Time: 0.09s | Printable

The Sonic Center v3.9
Copyright 2003-2011 by The Sonic Center Team.